Time;durP1;ratioP1;P1;durP2;ratioP2;P2;SDS_P1;SDS_P2;PMS_P1;PMS_P2;Temp;Humidity;BMP_temperature;BMP_pressure;BME280_temperature;BME280_humidity;BME280_pressure;Samples;Min_cycle;Max_cycle;Signal;HPM_P1;HPM_P2
2023/10/07 00:00:17;;;;;;;21.13;5.20;;;;;;;;;;5087468;28;20043;-84
2023/10/07 00:02:43;;;;;;;24.48;5.63;;;;;;;;;;5080551;28;20443;-84
2023/10/07 00:05:15;;;;;;;24.83;5.72;;;;;;;;;;5077064;28;20132;-84
2023/10/07 00:07:44;;;;;;;22.30;5.47;;;;;;;;;;5075913;28;20455;-84
2023/10/07 00:10:25;;;;;;;20.48;5.60;;;;;;;;;;5075878;28;20048;-84
2023/10/07 00:12:51;;;;;;;;;;;;;;;;;;5063977;28;20040;-84
2023/10/07 00:15:21;;;;;;;19.63;5.20;;;;;;;;;;5075852;28;19921;-84
2023/10/07 00:17:47;;;;;;;22.70;5.65;;;;;;;;;;5081840;28;20775;-84
2023/10/07 00:20:13;;;;;;;18.80;5.93;;;;;;;;;;5087715;28;20095;-84
2023/10/07 00:22:47;;;;;;;23.38;5.68;;;;;;;;;;5091657;28;20056;-83
2023/10/07 00:25:16;;;;;;;22.85;5.57;;;;;;;;;;5083729;28;20061;-84
2023/10/07 00:27:44;;;;;;;;;;;;;;;;;;5070938;28;20051;-84
2023/10/07 00:30:15;;;;;;;20.42;4.80;;;;;;;;;;5075620;28;19924;-84
2023/10/07 00:32:51;;;;;;;20.15;5.05;;;;;;;;;;5075891;28;20177;-84
2023/10/07 00:35:20;;;;;;;20.45;5.82;;;;;;;;;;5073904;28;20044;-84
2023/10/07 00:37:46;;;;;;;17.67;5.00;;;;;;;;;;5068536;28;20052;-85
2023/10/07 00:40:33;;;;;;;21.85;5.13;;;;;;;;;;5066257;28;20055;-84
2023/10/07 00:42:59;;;;;;;17.88;5.35;;;;;;;;;;5069226;28;20041;-85
2023/10/07 00:45:26;;;;;;;20.25;5.35;;;;;;;;;;5075798;28;20397;-84
2023/10/07 00:47:53;;;;;;;21.33;5.07;;;;;;;;;;5073676;28;20119;-84
2023/10/07 00:50:25;;;;;;;18.80;5.10;;;;;;;;;;5074510;28;20524;-84
2023/10/07 00:52:56;;;;;;;17.00;5.03;;;;;;;;;;5074971;28;20047;-84
2023/10/07 00:55:29;;;;;;;21.25;4.70;;;;;;;;;;5064239;28;20127;-84
2023/10/07 01:00:40;;;;;;;19.15;5.38;;;;;;;;;;5080359;28;20051;-84
2023/10/07 01:03:55;;;;;;;15.15;5.00;;;;;;;;;;5071939;28;20123;-84
2023/10/07 01:08:42;;;;;;;17.00;4.80;;;;;;;;;;5086915;28;20496;-85
2023/10/07 01:11:29;;;;;;;21.17;5.32;;;;;;;;;;5085583;28;20036;-84
2023/10/07 01:13:57;;;;;;;17.00;4.35;;;;;;;;;;5084354;28;20044;-85
2023/10/07 01:17:00;;;;;;;24.27;5.40;;;;;;;;;;5087604;28;20045;-85
2023/10/07 01:19:27;;;;;;;16.58;4.50;;;;;;;;;;5083947;28;20059;-85
2023/10/07 01:22:15;;;;;;;17.20;4.70;;;;;;;;;;5084894;28;20044;-85
2023/10/07 01:24:45;;;;;;;16.55;5.30;;;;;;;;;;5076863;28;20036;-85
2023/10/07 01:27:28;;;;;;;25.27;5.47;;;;;;;;;;5075502;28;20099;-84
2023/10/07 01:30:13;;;;;;;23.55;5.38;;;;;;;;;;5080210;28;20049;-85
2023/10/07 01:32:49;;;;;;;21.90;4.88;;;;;;;;;;5097205;28;20272;-84
2023/10/07 01:35:25;;;;;;;19.10;5.28;;;;;;;;;;5070011;28;20493;-85
2023/10/07 01:37:59;;;;;;;23.98;5.55;;;;;;;;;;5055226;28;20052;-85
2023/10/07 01:40:41;;;;;;;22.00;5.97;;;;;;;;;;5085404;28;20131;-86
2023/10/07 01:43:08;;;;;;;19.60;6.05;;;;;;;;;;5077917;28;20055;-84
2023/10/07 01:45:39;;;;;;;26.85;6.30;;;;;;;;;;5075437;28;20048;-85
2023/10/07 01:48:10;;;;;;;20.60;5.95;;;;;;;;;;5047051;28;20044;-83
2023/10/07 01:50:43;;;;;;;26.88;6.80;;;;;;;;;;5083315;28;20085;-84
2023/10/07 01:53:11;;;;;;;26.77;6.57;;;;;;;;;;5077753;28;20068;-85
2023/10/07 01:55:43;;;;;;;22.52;6.05;;;;;;;;;;5074530;28;20097;-84
2023/10/07 01:58:13;;;;;;;25.48;6.30;;;;;;;;;;5072709;28;20049;-85
2023/10/07 02:00:46;;;;;;;18.45;5.85;;;;;;;;;;5080904;28;20070;-84
2023/10/07 02:03:16;;;;;;;23.88;6.20;;;;;;;;;;5093409;28;20044;-85
2023/10/07 02:05:49;;;;;;;24.77;6.53;;;;;;;;;;5073184;28;20135;-84
2023/10/07 02:08:21;;;;;;;26.08;7.07;;;;;;;;;;5082683;28;20528;-84
2023/10/07 02:10:49;;;;;;;20.75;6.93;;;;;;;;;;5075206;28;20044;-84
2023/10/07 02:13:19;;;;;;;24.15;7.28;;;;;;;;;;5074232;28;20041;-84
2023/10/07 02:15:45;;;;;;;22.67;7.10;;;;;;;;;;5072889;28;20056;-84
2023/10/07 02:18:18;;;;;;;17.50;6.32;;;;;;;;;;5077287;28;20045;-84
2023/10/07 02:20:50;;;;;;;24.45;7.10;;;;;;;;;;5073171;28;20511;-84
2023/10/07 02:23:28;;;;;;;23.77;6.75;;;;;;;;;;5073073;28;20049;-84
2023/10/07 02:25:58;;;;;;;24.08;6.60;;;;;;;;;;5071855;28;20048;-84
2023/10/07 02:28:29;;;;;;;22.20;6.82;;;;;;;;;;5072174;28;20044;-84
2023/10/07 02:31:01;;;;;;;25.23;7.47;;;;;;;;;;5072928;28;20041;-84
2023/10/07 02:33:41;;;;;;;21.17;6.35;;;;;;;;;;5072781;28;20048;-83
2023/10/07 02:36:10;;;;;;;20.65;5.93;;;;;;;;;;5072189;28;20052;-84
2023/10/07 02:38:38;;;;;;;17.00;5.72;;;;;;;;;;5076839;28;20055;-84
2023/10/07 02:41:15;;;;;;;19.17;6.07;;;;;;;;;;5061383;28;20040;-84
2023/10/07 02:43:43;;;;;;;26.05;6.45;;;;;;;;;;5065304;28;20127;-84
2023/10/07 02:46:22;;;;;;;19.73;5.90;;;;;;;;;;5071791;28;20497;-84
2023/10/07 02:48:48;;;;;;;23.30;5.65;;;;;;;;;;5074787;28;20123;-84
2023/10/07 02:51:18;;;;;;;19.75;5.68;;;;;;;;;;5072835;28;20056;-84
2023/10/07 02:53:44;;;;;;;20.45;5.90;;;;;;;;;;5072437;28;20047;-84
2023/10/07 02:56:22;;;;;;;20.73;6.10;;;;;;;;;;5071352;28;20405;-84
2023/10/07 02:58:59;;;;;;;19.08;5.63;;;;;;;;;;5058650;28;20048;-84
2023/10/07 03:01:26;;;;;;;19.13;5.80;;;;;;;;;;5078935;28;20033;-84
2023/10/07 03:03:53;;;;;;;22.60;5.55;;;;;;;;;;5072519;28;20082;-86
2023/10/07 03:06:19;;;;;;;16.75;5.28;;;;;;;;;;5075536;28;20044;-84
2023/10/07 03:11:12;;;;;;;22.83;5.57;;;;;;;;;;5072832;28;20098;-84
2023/10/07 03:13:49;;;;;;;19.98;5.20;;;;;;;;;;5085736;28;20044;-84
2023/10/07 03:24:12;;;;;;;20.73;5.65;;;;;;;;;;5076864;28;20520;-85
2023/10/07 03:26:40;;;;;;;16.17;4.47;;;;;;;;;;5077469;28;20382;-84
2023/10/07 03:29:07;;;;;;;18.17;5.78;;;;;;;;;;5076997;28;20040;-84
2023/10/07 03:31:52;;;;;;;20.38;5.57;;;;;;;;;;5075138;28;20119;-84
2023/10/07 03:34:18;;;;;;;21.40;5.22;;;;;;;;;;5080448;28;20046;-84
2023/10/07 03:36:46;;;;;;;17.80;5.22;;;;;;;;;;5078337;28;20040;-84
2023/10/07 03:41:52;;;;;;;24.15;5.15;;;;;;;;;;5092404;28;20130;-85
2023/10/07 03:44:20;;;;;;;17.55;5.20;;;;;;;;;;5076827;28;20486;-84
2023/10/07 03:46:47;;;;;;;17.10;4.80;;;;;;;;;;5076208;28;20041;-84
2023/10/07 03:49:21;;;;;;;17.95;4.93;;;;;;;;;;5080234;28;20040;-84
2023/10/07 03:52:20;;;;;;;21.38;5.20;;;;;;;;;;5090350;28;20473;-84
2023/10/07 03:54:40;;;;;;;17.45;5.10;;;;;;;;;;5073357;28;20060;-84
2023/10/07 03:57:07;;;;;;;15.38;4.72;;;;;;;;;;5076130;28;20028;-83
2023/10/07 03:59:36;;;;;;;15.93;5.25;;;;;;;;;;5058428;28;20095;-84
2023/10/07 04:02:29;;;;;;;18.52;5.63;;;;;;;;;;5076879;28;20052;-84
2023/10/07 04:04:58;;;;;;;19.17;5.28;;;;;;;;;;5085793;28;20053;-84
2023/10/07 04:07:25;;;;;;;24.15;5.28;;;;;;;;;;5076570;28;20046;-84
2023/10/07 04:09:51;;;;;;;15.23;5.22;;;;;;;;;;5077284;28;20083;-83
2023/10/07 04:12:17;;;;;;;21.02;5.65;;;;;;;;;;5077720;28;20079;-84
2023/10/07 04:14:43;;;;;;;20.63;5.35;;;;;;;;;;5075021;28;20111;-84
2023/10/07 04:17:12;;;;;;;17.40;4.60;;;;;;;;;;5075655;28;20425;-84
2023/10/07 04:19:42;;;;;;;18.33;5.20;;;;;;;;;;5083421;28;20088;-84
2023/10/07 04:22:11;;;;;;;17.95;5.07;;;;;;;;;;5073366;28;20049;-84
2023/10/07 04:24:44;;;;;;;17.50;5.15;;;;;;;;;;5067460;28;20037;-83
2023/10/07 04:27:18;;;;;;;15.80;4.53;;;;;;;;;;5088032;28;20063;-84
2023/10/07 04:29:44;;;;;;;20.02;5.20;;;;;;;;;;5077079;28;20044;-83
2023/10/07 04:32:13;;;;;;;17.90;5.30;;;;;;;;;;5075683;28;20056;-85
2023/10/07 04:35:39;;;;;;;23.70;5.88;;;;;;;;;;5074149;28;20051;-84
2023/10/07 04:37:47;;;;;;;16.33;5.20;;;;;;;;;;5041384;28;20113;-84
2023/10/07 04:43:00;;;;;;;23.35;5.57;;;;;;;;;;5075258;28;20406;-84
2023/10/07 04:45:37;;;;;;;19.85;5.50;;;;;;;;;;5063480;28;20045;-84
2023/10/07 04:51:03;;;;;;;19.35;5.88;;;;;;;;;;5075498;28;20045;-84
2023/10/07 04:53:37;;;;;;;19.40;4.93;;;;;;;;;;5074022;28;20080;-84
2023/10/07 04:56:04;;;;;;;16.65;5.15;;;;;;;;;;5075041;28;20501;-84
2023/10/07 04:58:30;;;;;;;20.75;5.38;;;;;;;;;;5075844;28;20051;-84
2023/10/07 05:01:04;;;;;;;22.42;5.38;;;;;;;;;;5074263;28;20036;-85
2023/10/07 05:03:31;;;;;;;16.92;4.97;;;;;;;;;;5090531;28;20492;-84
2023/10/07 05:05:58;;;;;;;20.63;5.28;;;;;;;;;;5078398;28;20048;-84
2023/10/07 05:08:27;;;;;;;21.08;5.28;;;;;;;;;;5057253;28;20397;-84
2023/10/07 05:10:54;;;;;;;18.05;5.18;;;;;;;;;;5074666;28;20045;-85
2023/10/07 05:13:21;;;;;;;21.80;5.60;;;;;;;;;;5075584;28;20124;-84
2023/10/07 05:15:47;;;;;;;15.80;4.88;;;;;;;;;;5074841;28;20051;-84
2023/10/07 05:18:14;;;;;;;18.90;4.88;;;;;;;;;;5074459;28;20389;-84
2023/10/07 05:20:41;;;;;;;16.92;5.00;;;;;;;;;;5074293;28;20049;-84
2023/10/07 05:23:08;;;;;;;20.00;5.15;;;;;;;;;;5074088;28;20519;-84
2023/10/07 05:25:38;;;;;;;21.27;5.15;;;;;;;;;;5074756;28;20037;-84
2023/10/07 05:28:10;;;;;;;18.08;5.55;;;;;;;;;;5072652;28;20521;-84
2023/10/07 05:30:50;;;;;;;21.40;5.32;;;;;;;;;;5073248;28;20456;-85
2023/10/07 05:33:22;;;;;;;19.52;5.18;;;;;;;;;;5074435;28;20046;-85
2023/10/07 05:35:54;;;;;;;16.70;4.65;;;;;;;;;;5071576;28;20565;-84
2023/10/07 05:38:20;;;;;;;20.20;5.40;;;;;;;;;;5072734;28;20080;-84
2023/10/07 05:40:49;;;;;;;18.42;4.88;;;;;;;;;;5071418;28;20041;-84
2023/10/07 05:43:16;;;;;;;16.67;5.28;;;;;;;;;;5061681;28;20102;-85
2023/10/07 05:45:42;;;;;;;21.35;5.25;;;;;;;;;;5073898;28;20123;-84
2023/10/07 05:48:10;;;;;;;18.80;5.72;;;;;;;;;;5074755;28;20075;-84
2023/10/07 05:50:36;;;;;;;17.38;5.70;;;;;;;;;;5070840;28;20048;-85
2023/10/07 05:53:04;;;;;;;22.52;5.75;;;;;;;;;;5088105;28;20045;-84
2023/10/07 05:55:31;;;;;;;17.27;5.47;;;;;;;;;;5072957;28;20056;-84
2023/10/07 05:57:58;;;;;;;17.98;5.00;;;;;;;;;;5071515;28;20362;-84
2023/10/07 06:00:27;;;;;;;16.15;5.25;;;;;;;;;;5088255;28;20367;-84
2023/10/07 06:02:55;;;;;;;22.20;5.10;;;;;;;;;;5073650;28;20127;-85
2023/10/07 06:05:27;;;;;;;13.68;4.72;;;;;;;;;;5061452;28;20053;-84
2023/10/07 06:07:53;;;;;;;15.57;5.43;;;;;;;;;;5068985;28;20501;-84
2023/10/07 06:10:19;;;;;;;19.02;5.20;;;;;;;;;;5063572;28;20453;-84
2023/10/07 06:12:46;;;;;;;20.13;4.90;;;;;;;;;;5072734;28;20124;-85
2023/10/07 06:15:12;;;;;;;14.00;4.68;;;;;;;;;;5086983;28;20059;-84
2023/10/07 06:17:38;;;;;;;17.33;4.88;;;;;;;;;;5075040;28;20041;-84
2023/10/07 06:20:14;;;;;;;15.75;4.97;;;;;;;;;;5071357;28;20457;-84
2023/10/07 06:22:46;;;;;;;18.88;5.07;;;;;;;;;;5072533;28;20045;-85
2023/10/07 06:25:16;;;;;;;15.13;5.05;;;;;;;;;;5066764;28;20048;-85
2023/10/07 06:27:43;;;;;;;19.75;5.20;;;;;;;;;;5073921;28;20047;-84
2023/10/07 06:30:20;;;;;;;18.13;4.60;;;;;;;;;;5073726;28;20087;-84
2023/10/07 06:32:55;;;;;;;17.05;5.25;;;;;;;;;;5069448;28;20120;-84
2023/10/07 06:35:25;;;;;;;18.15;5.22;;;;;;;;;;5063587;28;20094;-83
2023/10/07 06:38:03;;;;;;;18.40;4.75;;;;;;;;;;5069156;28;20079;-84
2023/10/07 06:40:29;;;;;;;17.05;5.63;;;;;;;;;;5095088;28;20044;-84
2023/10/07 06:42:58;;;;;;;16.15;5.07;;;;;;;;;;5082378;28;20041;-84
2023/10/07 06:45:29;;;;;;;15.15;4.97;;;;;;;;;;5055363;28;20049;-84
2023/10/07 06:47:59;;;;;;;17.58;5.30;;;;;;;;;;5060375;28;20119;-84
2023/10/07 06:50:27;;;;;;;15.52;5.15;;;;;;;;;;5073146;28;20049;-84
2023/10/07 06:52:55;;;;;;;19.02;5.20;;;;;;;;;;5075910;28;20049;-84
2023/10/07 06:55:24;;;;;;;17.67;5.47;;;;;;;;;;5062491;28;20053;-84
2023/10/07 06:57:56;;;;;;;16.50;5.78;;;;;;;;;;5071416;28;20048;-84
2023/10/07 07:00:37;;;;;;;20.85;5.30;;;;;;;;;;5087287;28;20055;-85
2023/10/07 07:03:09;;;;;;;17.63;5.10;;;;;;;;;;5070475;28;20050;-84
2023/10/07 07:05:36;;;;;;;17.05;5.13;;;;;;;;;;5064654;28;20120;-84
2023/10/07 07:08:05;;;;;;;17.65;5.68;;;;;;;;;;5068114;28;20151;-84
2023/10/07 07:10:31;;;;;;;17.20;6.00;;;;;;;;;;5067290;28;20509;-84
2023/10/07 07:13:13;;;;;;;19.20;6.35;;;;;;;;;;5077724;28;20496;-84
2023/10/07 07:15:43;;;;;;;18.17;5.70;;;;;;;;;;5077795;28;20052;-84
2023/10/07 07:20:49;;;;;;;16.52;5.60;;;;;;;;;;5087216;28;20611;-84
2023/10/07 07:23:16;;;;;;;18.33;5.82;;;;;;;;;;5076441;28;20051;-84
2023/10/07 07:25:53;;;;;;;15.77;5.65;;;;;;;;;;5076444;28;20485;-84
2023/10/07 07:28:19;;;;;;;16.25;5.70;;;;;;;;;;5072439;28;20055;-84
2023/10/07 07:30:45;;;;;;;17.73;5.47;;;;;;;;;;5073759;28;20515;-85
2023/10/07 07:33:15;;;;;;;18.75;5.55;;;;;;;;;;5081565;28;20048;-85
2023/10/07 07:35:49;;;;;;;15.77;5.43;;;;;;;;;;5091054;28;20397;-84
2023/10/07 07:40:57;;;;;;;16.20;5.68;;;;;;;;;;5050988;28;20478;-84
2023/10/07 07:43:25;;;;;;;19.30;5.38;;;;;;;;;;5064997;28;20094;-84
2023/10/07 07:45:56;;;;;;;16.55;5.97;;;;;;;;;;5084287;28;20504;-83
2023/10/07 07:48:25;;;;;;;19.95;6.07;;;;;;;;;;5081579;28;20090;-84
2023/10/07 07:50:53;;;;;;;19.27;5.55;;;;;;;;;;5084734;28;20500;-83
2023/10/07 07:53:20;;;;;;;20.35;5.82;;;;;;;;;;5081266;28;20051;-84
2023/10/07 07:55:47;;;;;;;19.45;5.32;;;;;;;;;;5076634;28;20200;-85
2023/10/07 07:58:13;;;;;;;20.05;5.45;;;;;;;;;;5073978;28;20048;-85
2023/10/07 08:00:58;;;;;;;19.63;5.40;;;;;;;;;;5076126;28;20136;-85
2023/10/07 08:03:24;;;;;;;16.83;5.38;;;;;;;;;;5074278;28;20045;-87
2023/10/07 08:05:50;;;;;;;17.40;4.90;;;;;;;;;;5074622;28;20048;-84
2023/10/07 08:08:24;;;;;;;22.08;6.00;;;;;;;;;;5073308;28;20036;-84
2023/10/07 08:10:54;;;;;;;18.38;6.43;;;;;;;;;;5073854;28;20083;-84
2023/10/07 08:13:23;;;;;;;18.03;5.73;;;;;;;;;;5075203;28;20455;-84
2023/10/07 08:15:51;;;;;;;17.10;5.43;;;;;;;;;;5075191;28;20138;-85
2023/10/07 08:18:22;;;;;;;14.68;5.00;;;;;;;;;;5074087;28;20078;-84
2023/10/07 08:20:48;;;;;;;16.27;5.18;;;;;;;;;;5057020;28;20060;-85
2023/10/07 08:23:28;;;;;;;17.95;5.43;;;;;;;;;;5073247;28;20061;-85
2023/10/07 08:26:06;;;;;;;18.83;5.50;;;;;;;;;;5075653;28;20044;-84
2023/10/07 08:31:19;;;;;;;20.35;5.40;;;;;;;;;;5084443;28;20044;-84
2023/10/07 08:33:53;;;;;;;13.35;4.30;;;;;;;;;;5086980;28;20400;-84
2023/10/07 08:36:20;;;;;;;15.95;5.05;;;;;;;;;;5076950;28;20044;-85
2023/10/07 08:38:50;;;;;;;19.80;5.13;;;;;;;;;;5074975;28;20094;-84
2023/10/07 08:41:16;;;;;;;16.48;4.20;;;;;;;;;;5076813;28;20041;-84
2023/10/07 08:44:02;;;;;;;15.30;4.85;;;;;;;;;;5075461;28;20036;-84
2023/10/07 08:46:28;;;;;;;11.95;4.03;;;;;;;;;;5074385;28;20059;-84
2023/10/07 08:48:58;;;;;;;17.35;5.07;;;;;;;;;;5072754;28;20049;-85
2023/10/07 08:51:25;;;;;;;15.52;4.90;;;;;;;;;;5075683;28;20080;-84
2023/10/07 08:54:07;;;;;;;14.73;4.30;;;;;;;;;;5072653;28;20086;-83
2023/10/07 08:56:36;;;;;;;16.88;4.63;;;;;;;;;;5074925;28;20403;-84
2023/10/07 08:59:06;;;;;;;16.05;4.72;;;;;;;;;;5074143;28;20505;-85
2023/10/07 09:01:32;;;;;;;17.83;4.35;;;;;;;;;;5081809;28;20182;-82
2023/10/07 09:04:01;;;;;;;15.10;4.15;;;;;;;;;;5068106;28;20107;-84
2023/10/07 09:06:32;;;;;;;14.35;4.65;;;;;;;;;;5071238;28;20111;-84
2023/10/07 09:08:58;;;;;;;;;;;;;;;;;;5074125;28;20048;-84
2023/10/07 09:11:27;;;;;;;13.73;4.15;;;;;;;;;;5054352;28;19948;-84
2023/10/07 09:13:55;;;;;;;16.42;4.40;;;;;;;;;;5065979;28;20044;-84
2023/10/07 09:16:24;;;;;;;13.68;4.70;;;;;;;;;;5076232;28;20492;-84
2023/10/07 09:18:55;;;;;;;17.10;4.60;;;;;;;;;;5074307;28;20052;-84
2023/10/07 09:21:33;;;;;;;18.17;5.00;;;;;;;;;;5074805;28;20053;-84
2023/10/07 09:24:03;;;;;;;15.25;5.50;;;;;;;;;;5076602;28;20125;-84
2023/10/07 09:26:41;;;;;;;15.18;4.18;;;;;;;;;;5073129;28;20051;-84
2023/10/07 09:29:15;;;;;;;16.35;4.88;;;;;;;;;;5073690;28;20468;-84
2023/10/07 09:31:56;;;;;;;15.68;4.53;;;;;;;;;;5056623;28;20048;-83
2023/10/07 09:34:32;;;;;;;16.23;4.85;;;;;;;;;;5084515;28;20056;-84
2023/10/07 09:37:08;;;;;;;12.40;4.35;;;;;;;;;;5074428;28;20468;-84
2023/10/07 09:39:43;;;;;;;18.73;4.40;;;;;;;;;;5073550;28;20401;-85
2023/10/07 09:42:29;;;;;;;14.95;4.32;;;;;;;;;;5073518;28;20052;-84
2023/10/07 09:45:17;;;;;;;16.60;4.50;;;;;;;;;;5058932;28;20045;-84
2023/10/07 09:47:46;;;;;;;16.98;4.70;;;;;;;;;;5073408;28;20083;-84
2023/10/07 09:50:28;;;;;;;17.80;4.88;;;;;;;;;;5054433;28;20051;-84
2023/10/07 09:52:56;;;;;;;;;;;;;;;;;;5054261;28;20049;-85
2023/10/07 09:55:43;;;;;;;20.95;4.93;;;;;;;;;;5070641;28;19921;-85
2023/10/07 09:58:41;;;;;;;14.82;4.35;;;;;;;;;;5033012;28;20510;-85
2023/10/07 10:01:28;;;;;;;18.77;4.50;;;;;;;;;;5055579;28;20040;-84
2023/10/07 10:04:06;;;;;;;24.30;5.03;;;;;;;;;;5051943;28;20450;-84
2023/10/07 10:06:33;;;;;;;18.17;4.60;;;;;;;;;;5054394;28;20040;-84
2023/10/07 10:09:08;;;;;;;13.57;4.80;;;;;;;;;;5062638;28;20048;-84
2023/10/07 10:14:16;;;;;;;16.55;4.85;;;;;;;;;;5073069;28;20056;-84
2023/10/07 10:16:46;;;;;;;15.77;4.93;;;;;;;;;;5072539;28;20115;-85
2023/10/07 10:19:22;;;;;;;18.17;4.95;;;;;;;;;;5084282;28;20504;-85
2023/10/07 10:21:50;;;;;;;19.17;4.65;;;;;;;;;;5052458;28;20080;-84
2023/10/07 10:24:16;;;;;;;16.27;4.55;;;;;;;;;;5069973;28;20044;-85
2023/10/07 10:26:50;;;;;;;15.80;5.00;;;;;;;;;;5088236;28;20493;-85
2023/10/07 10:29:25;;;;;;;16.92;4.93;;;;;;;;;;5067430;28;20036;-84
2023/10/07 10:31:51;;;;;;;21.05;4.93;;;;;;;;;;5071211;28;20144;-84
2023/10/07 10:34:20;;;;;;;18.63;5.25;;;;;;;;;;5070521;28;20397;-85
2023/10/07 10:36:49;;;;;;;15.35;4.72;;;;;;;;;;5071596;28;20044;-85
2023/10/07 10:39:18;;;;;;;16.75;4.75;;;;;;;;;;5072424;28;20466;-85
2023/10/07 10:41:45;;;;;;;13.82;4.60;;;;;;;;;;5071200;28;20076;-84
2023/10/07 10:44:12;;;;;;;16.52;4.68;;;;;;;;;;5071961;28;20404;-85
2023/10/07 10:46:46;;;;;;;15.30;4.25;;;;;;;;;;5091023;28;20049;-86
2023/10/07 10:49:20;;;;;;;15.32;4.63;;;;;;;;;;5075257;28;20032;-87
2023/10/07 10:51:48;;;;;;;16.83;4.60;;;;;;;;;;5070751;28;20162;-85
2023/10/07 10:54:35;;;;;;;18.73;4.80;;;;;;;;;;5083774;28;20456;-83
2023/10/07 10:57:05;;;;;;;16.30;5.22;;;;;;;;;;5062607;28;20040;-84
2023/10/07 10:59:48;;;;;;;18.10;4.90;;;;;;;;;;5074663;28;20051;-85
2023/10/07 11:02:20;;;;;;;16.25;5.32;;;;;;;;;;5070234;28;20068;-84
2023/10/07 11:04:47;;;;;;;15.50;4.82;;;;;;;;;;5077982;28;20404;-85
2023/10/07 11:07:14;;;;;;;13.70;4.43;;;;;;;;;;5078764;28;20126;-84
2023/10/07 11:09:41;;;;;;;15.52;4.78;;;;;;;;;;5085636;28;20191;-84
2023/10/07 11:12:12;;;;;;;16.55;4.90;;;;;;;;;;5070492;28;20478;-85
2023/10/07 11:14:40;;;;;;;15.30;4.78;;;;;;;;;;5084649;28;20105;-84
2023/10/07 11:17:09;;;;;;;17.30;4.93;;;;;;;;;;5071618;28;20051;-84
2023/10/07 11:19:45;;;;;;;15.05;4.47;;;;;;;;;;5073868;28;20389;-84
2023/10/07 11:22:19;;;;;;;15.88;5.00;;;;;;;;;;5069274;28;20084;-84
2023/10/07 11:24:46;;;;;;;18.23;4.47;;;;;;;;;;5086770;28;20064;-85
2023/10/07 11:27:12;;;;;;;16.85;4.65;;;;;;;;;;5071591;28;20078;-84
2023/10/07 11:29:40;;;;;;;13.43;4.07;;;;;;;;;;5075992;28;20458;-80
2023/10/07 11:32:07;;;;;;;14.30;4.57;;;;;;;;;;5080080;28;20068;-80
2023/10/07 11:34:36;;;;;;;14.15;5.00;;;;;;;;;;5080830;28;20044;-82
2023/10/07 11:37:13;;;;;;;16.30;4.90;;;;;;;;;;5077638;28;20074;-81
2023/10/07 11:39:47;;;;;;;16.95;4.82;;;;;;;;;;5077945;28;20044;-84
2023/10/07 11:42:17;;;;;;;15.50;5.40;;;;;;;;;;5077940;28;20152;-82
2023/10/07 11:44:46;;;;;;;19.27;5.60;;;;;;;;;;5086472;28;20043;-80
2023/10/07 11:47:15;;;;;;;16.95;5.10;;;;;;;;;;5078570;28;20309;-79
2023/10/07 11:49:41;;;;;;;14.25;4.88;;;;;;;;;;5078191;28;20246;-80
2023/10/07 11:52:07;;;;;;;18.33;5.43;;;;;;;;;;5077301;28;20059;-81
2023/10/07 11:54:37;;;;;;;18.85;5.30;;;;;;;;;;5093902;28;20131;-82
2023/10/07 11:57:06;;;;;;;19.40;4.90;;;;;;;;;;5088375;28;20064;-81
2023/10/07 11:59:40;;;;;;;15.60;5.07;;;;;;;;;;5097969;28;20045;-83
2023/10/07 12:02:10;;;;;;;17.05;5.35;;;;;;;;;;5078727;28;20131;-82
2023/10/07 12:04:39;;;;;;;17.13;5.18;;;;;;;;;;5081452;28;20082;-80
2023/10/07 12:07:08;;;;;;;17.00;4.78;;;;;;;;;;5093178;28;20052;-81
2023/10/07 12:09:37;;;;;;;16.90;5.10;;;;;;;;;;5078002;28;20070;-81
2023/10/07 12:12:03;;;;;;;16.90;4.93;;;;;;;;;;5083630;28;20044;-81
2023/10/07 12:14:31;;;;;;;17.60;5.07;;;;;;;;;;5078061;28;20075;-78
2023/10/07 12:16:58;;;;;;;14.68;5.03;;;;;;;;;;5078834;28;20068;-82
2023/10/07 12:19:25;;;;;;;16.65;5.47;;;;;;;;;;5076609;28;20056;-81
2023/10/07 12:21:52;;;;;;;17.13;4.90;;;;;;;;;;5075496;28;20499;-82
2023/10/07 12:24:19;;;;;;;16.67;5.38;;;;;;;;;;5074867;28;20045;-82
2023/10/07 12:26:51;;;;;;;12.90;4.93;;;;;;;;;;5081921;28;20036;-82
2023/10/07 12:29:18;;;;;;;16.38;4.90;;;;;;;;;;5060943;28;20074;-83
2023/10/07 12:31:45;;;;;;;15.02;4.55;;;;;;;;;;5076814;28;20386;-81
2023/10/07 12:34:18;;;;;;;13.75;4.88;;;;;;;;;;5081661;28;20410;-80
2023/10/07 12:36:44;;;;;;;16.30;5.80;;;;;;;;;;5080958;28;20044;-81
2023/10/07 12:39:11;;;;;;;14.45;4.82;;;;;;;;;;5081819;28;20051;-80
2023/10/07 12:41:40;;;;;;;14.65;4.82;;;;;;;;;;5081694;28;20040;-80
2023/10/07 12:44:08;;;;;;;17.77;4.95;;;;;;;;;;5080458;28;20064;-80
2023/10/07 12:46:38;;;;;;;20.02;5.07;;;;;;;;;;5082936;28;20147;-80
2023/10/07 12:49:09;;;;;;;15.52;5.15;;;;;;;;;;5064860;28;20036;-80
2023/10/07 12:51:38;;;;;;;16.13;4.80;;;;;;;;;;5091639;28;20563;-80
2023/10/07 12:54:08;;;;;;;15.02;4.93;;;;;;;;;;5081379;28;20037;-80
2023/10/07 12:56:36;;;;;;;17.25;5.00;;;;;;;;;;5082323;28;20119;-79
2023/10/07 12:59:07;;;;;;;14.93;4.90;;;;;;;;;;5075408;28;20073;-80
2023/10/07 13:01:33;;;;;;;18.67;5.40;;;;;;;;;;5092206;28;20051;-79
2023/10/07 13:04:01;;;;;;;18.33;4.75;;;;;;;;;;5082301;28;20036;-80
2023/10/07 13:06:28;;;;;;;13.77;4.93;;;;;;;;;;5079941;28;20052;-80
2023/10/07 13:08:54;;;;;;;17.90;4.93;;;;;;;;;;5046693;28;20516;-80
2023/10/07 13:11:21;;;;;;;14.68;4.70;;;;;;;;;;5091867;28;20073;-80
2023/10/07 13:13:47;;;;;;;17.65;5.05;;;;;;;;;;5082086;28;20051;-79
2023/10/07 13:16:14;;;;;;;17.17;5.47;;;;;;;;;;5070335;28;20469;-79
2023/10/07 13:18:41;;;;;;;18.40;4.95;;;;;;;;;;5081034;28;20414;-81
2023/10/07 13:21:13;;;;;;;16.52;5.60;;;;;;;;;;5079717;28;20060;-79
2023/10/07 13:23:40;;;;;;;15.68;5.30;;;;;;;;;;5082459;28;20048;-81
2023/10/07 13:26:08;;;;;;;14.27;5.13;;;;;;;;;;5079976;28;20048;-81
2023/10/07 13:28:38;;;;;;;18.73;5.07;;;;;;;;;;5082407;28;20045;-80
2023/10/07 13:31:08;;;;;;;16.75;5.78;;;;;;;;;;5081370;28;20140;-80
2023/10/07 13:33:36;;;;;;;17.77;4.95;;;;;;;;;;5084436;28;20044;-81
2023/10/07 13:36:02;;;;;;;15.88;5.53;;;;;;;;;;5096660;28;20127;-80
2023/10/07 13:38:29;;;;;;;15.32;5.38;;;;;;;;;;5081007;28;20047;-80
2023/10/07 13:40:55;;;;;;;20.05;5.13;;;;;;;;;;5078020;28;20108;-80
2023/10/07 13:43:26;;;;;;;18.48;5.47;;;;;;;;;;5081121;28;20427;-80
2023/10/07 13:45:53;;;;;;;16.33;5.13;;;;;;;;;;5078805;28;20051;-80
2023/10/07 13:48:19;;;;;;;13.88;5.38;;;;;;;;;;5086548;28;20056;-80
2023/10/07 13:50:47;;;;;;;15.45;5.50;;;;;;;;;;5081598;28;20048;-80
2023/10/07 13:53:14;;;;;;;14.02;5.30;;;;;;;;;;5094509;28;20366;-80
2023/10/07 13:58:07;;;;;;;14.02;5.30;;;;;;;;;;5080293;28;20052;-80
2023/10/07 14:03:00;;;;;;;14.35;4.68;;;;;;;;;;5080161;28;20049;-81
2023/10/07 14:05:26;;;;;;;16.90;5.05;;;;;;;;;;5083105;28;20044;-80
2023/10/07 14:07:53;;;;;;;17.42;4.93;;;;;;;;;;5080618;28;20055;-80
2023/10/07 14:10:25;;;;;;;16.42;5.25;;;;;;;;;;5075805;28;22071;-80
2023/10/07 14:12:54;;;;;;;13.68;4.93;;;;;;;;;;5069603;28;20063;-80
2023/10/07 14:15:20;;;;;;;17.90;5.85;;;;;;;;;;5087646;28;20044;-81
2023/10/07 14:17:47;;;;;;;15.57;5.07;;;;;;;;;;5085971;28;20044;-81
2023/10/07 14:20:16;;;;;;;18.08;5.00;;;;;;;;;;5084419;28;20060;-81
2023/10/07 14:22:46;;;;;;;16.55;5.15;;;;;;;;;;5082225;28;20147;-80
2023/10/07 14:25:12;;;;;;;13.27;4.93;;;;;;;;;;5079564;28;20044;-81
2023/10/07 14:27:39;;;;;;;13.73;5.03;;;;;;;;;;5080877;28;20485;-81
2023/10/07 14:30:06;;;;;;;14.60;5.13;;;;;;;;;;5082015;28;20066;-80
2023/10/07 14:32:32;;;;;;;19.90;4.93;;;;;;;;;;5081463;28;20054;-81
2023/10/07 14:34:58;;;;;;;11.82;4.90;;;;;;;;;;5081973;28;20107;-81
2023/10/07 14:37:24;;;;;;;13.77;5.20;;;;;;;;;;5082405;28;20142;-81
2023/10/07 14:39:53;;;;;;;15.52;5.45;;;;;;;;;;5084950;28;20047;-81
2023/10/07 14:42:19;;;;;;;15.57;4.90;;;;;;;;;;5078494;28;20420;-81
2023/10/07 14:44:46;;;;;;;13.30;5.07;;;;;;;;;;5094397;28;20051;-81
2023/10/07 14:47:14;;;;;;;14.30;5.00;;;;;;;;;;5080298;28;20045;-80
2023/10/07 14:49:43;;;;;;;15.70;5.50;;;;;;;;;;5083107;28;20040;-81
2023/10/07 14:52:12;;;;;;;17.42;5.45;;;;;;;;;;5077094;28;20056;-81
2023/10/07 14:54:40;;;;;;;15.27;5.18;;;;;;;;;;5079505;28;20056;-81
2023/10/07 14:57:07;;;;;;;15.15;5.10;;;;;;;;;;5077677;28;20072;-80
2023/10/07 14:59:33;;;;;;;19.33;5.45;;;;;;;;;;5079987;28;20489;-81
2023/10/07 15:02:02;;;;;;;17.15;5.20;;;;;;;;;;5079711;28;20052;-81
2023/10/07 15:04:29;;;;;;;15.90;5.13;;;;;;;;;;5078523;28;20070;-81
2023/10/07 15:06:56;;;;;;;15.82;5.38;;;;;;;;;;5095576;28;20044;-82
2023/10/07 15:09:25;;;;;;;15.68;5.65;;;;;;;;;;5080736;28;20588;-80
2023/10/07 15:11:54;;;;;;;14.02;5.47;;;;;;;;;;5086306;28;20101;-83
2023/10/07 15:14:20;;;;;;;16.60;5.35;;;;;;;;;;5075941;28;20044;-81
2023/10/07 15:16:47;;;;;;;16.88;5.25;;;;;;;;;;5078622;28;20044;-82
2023/10/07 15:19:15;;;;;;;17.30;4.90;;;;;;;;;;5082151;28;20045;-81
2023/10/07 15:21:41;;;;;;;16.85;5.07;;;;;;;;;;5076696;28;20052;-81
2023/10/07 15:24:07;;;;;;;16.65;5.25;;;;;;;;;;5078163;28;20057;-81
2023/10/07 15:26:33;;;;;;;15.98;4.90;;;;;;;;;;5076533;28;20576;-81
2023/10/07 15:29:03;;;;;;;17.38;5.25;;;;;;;;;;5077692;28;20105;-82